sensor_id;sensor_type;location;lat;lon;timestamp;P1;durP1;ratioP1;P2;durP2;ratioP2
77298;SDS011;66361;52.034;20.656;2023-02-23T00:02:25;9.02;;;5.72;;
77298;SDS011;66361;52.034;20.656;2023-02-23T00:06:29;7.47;;;4.78;;
77298;SDS011;66361;52.034;20.656;2023-02-23T00:10:38;10.65;;;6.18;;
77298;SDS011;66361;52.034;20.656;2023-02-23T00:14:41;8.77;;;6.13;;
77298;SDS011;66361;52.034;20.656;2023-02-23T00:18:47;10.38;;;7.57;;
77298;SDS011;66361;52.034;20.656;2023-02-23T00:22:51;8.50;;;6.30;;
77298;SDS011;66361;52.034;20.656;2023-02-23T00:26:55;9.57;;;5.50;;
77298;SDS011;66361;52.034;20.656;2023-02-23T00:31:00;8.20;;;5.22;;
77298;SDS011;66361;52.034;20.656;2023-02-23T00:35:06;7.95;;;6.05;;
77298;SDS011;66361;52.034;20.656;2023-02-23T00:39:20;9.48;;;5.95;;
77298;SDS011;66361;52.034;20.656;2023-02-23T00:43:30;4.68;;;4.22;;
77298;SDS011;66361;52.034;20.656;2023-02-23T00:47:35;9.85;;;5.25;;
77298;SDS011;66361;52.034;20.656;2023-02-23T00:51:40;8.50;;;6.20;;
77298;SDS011;66361;52.034;20.656;2023-02-23T00:55:43;11.05;;;6.50;;
77298;SDS011;66361;52.034;20.656;2023-02-23T00:59:46;11.10;;;6.22;;
77298;SDS011;66361;52.034;20.656;2023-02-23T01:03:49;8.73;;;5.22;;
77298;SDS011;66361;52.034;20.656;2023-02-23T01:07:56;12.68;;;6.25;;
77298;SDS011;66361;52.034;20.656;2023-02-23T01:11:59;8.93;;;4.68;;
77298;SDS011;66361;52.034;20.656;2023-02-23T01:16:03;11.40;;;6.03;;
77298;SDS011;66361;52.034;20.656;2023-02-23T01:20:07;5.88;;;4.00;;
77298;SDS011;66361;52.034;20.656;2023-02-23T01:24:17;10.27;;;7.63;;
77298;SDS011;66361;52.034;20.656;2023-02-23T01:28:20;8.90;;;6.22;;
77298;SDS011;66361;52.034;20.656;2023-02-23T01:32:24;9.27;;;6.82;;
77298;SDS011;66361;52.034;20.656;2023-02-23T01:36:27;8.00;;;4.80;;
77298;SDS011;66361;52.034;20.656;2023-02-23T01:40:41;10.73;;;7.97;;
77298;SDS011;66361;52.034;20.656;2023-02-23T01:49:24;11.13;;;6.97;;
77298;SDS011;66361;52.034;20.656;2023-02-23T01:53:31;10.02;;;5.18;;
77298;SDS011;66361;52.034;20.656;2023-02-23T01:57:37;8.38;;;4.65;;
77298;SDS011;66361;52.034;20.656;2023-02-23T02:01:42;9.90;;;6.90;;
77298;SDS011;66361;52.034;20.656;2023-02-23T02:05:48;8.27;;;5.72;;
77298;SDS011;66361;52.034;20.656;2023-02-23T02:09:54;7.07;;;3.75;;
77298;SDS011;66361;52.034;20.656;2023-02-23T02:14:15;7.25;;;4.50;;
77298;SDS011;66361;52.034;20.656;2023-02-23T02:18:25;8.43;;;5.53;;
77298;SDS011;66361;52.034;20.656;2023-02-23T02:22:47;9.60;;;5.97;;
77298;SDS011;66361;52.034;20.656;2023-02-23T02:27:13;8.05;;;4.60;;
77298;SDS011;66361;52.034;20.656;2023-02-23T02:31:50;8.85;;;4.65;;
77298;SDS011;66361;52.034;20.656;2023-02-23T02:36:19;9.20;;;5.05;;
77298;SDS011;66361;52.034;20.656;2023-02-23T02:40:44;10.07;;;5.53;;
77298;SDS011;66361;52.034;20.656;2023-02-23T02:44:55;8.82;;;4.63;;
77298;SDS011;66361;52.034;20.656;2023-02-23T02:53:13;8.98;;;4.95;;
77298;SDS011;66361;52.034;20.656;2023-02-23T02:57:23;12.10;;;6.00;;
77298;SDS011;66361;52.034;20.656;2023-02-23T03:01:29;10.80;;;5.90;;
77298;SDS011;66361;52.034;20.656;2023-02-23T03:05:50;9.35;;;5.47;;
77298;SDS011;66361;52.034;20.656;2023-02-23T03:10:13;10.40;;;5.10;;
77298;SDS011;66361;52.034;20.656;2023-02-23T03:14:44;9.45;;;5.28;;
77298;SDS011;66361;52.034;20.656;2023-02-23T03:19:16;11.68;;;5.20;;
77298;SDS011;66361;52.034;20.656;2023-02-23T03:23:42;10.05;;;5.25;;
77298;SDS011;66361;52.034;20.656;2023-02-23T03:28:11;9.88;;;6.13;;
77298;SDS011;66361;52.034;20.656;2023-02-23T03:32:36;8.75;;;5.82;;
77298;SDS011;66361;52.034;20.656;2023-02-23T03:37:07;8.70;;;5.97;;
77298;SDS011;66361;52.034;20.656;2023-02-23T03:41:33;10.65;;;5.55;;
77298;SDS011;66361;52.034;20.656;2023-02-23T03:45:56;10.43;;;5.38;;
77298;SDS011;66361;52.034;20.656;2023-02-23T03:50:25;7.85;;;4.90;;
77298;SDS011;66361;52.034;20.656;2023-02-23T03:54:51;11.13;;;5.72;;
77298;SDS011;66361;52.034;20.656;2023-02-23T03:59:15;11.98;;;7.45;;
77298;SDS011;66361;52.034;20.656;2023-02-23T04:03:40;9.68;;;7.63;;
77298;SDS011;66361;52.034;20.656;2023-02-23T04:08:05;14.00;;;9.32;;
77298;SDS011;66361;52.034;20.656;2023-02-23T04:12:29;11.98;;;7.82;;
77298;SDS011;66361;52.034;20.656;2023-02-23T04:16:54;11.00;;;9.57;;
77298;SDS011;66361;52.034;20.656;2023-02-23T04:20:57;11.50;;;7.90;;
77298;SDS011;66361;52.034;20.656;2023-02-23T04:25:02;14.23;;;8.45;;
77298;SDS011;66361;52.034;20.656;2023-02-23T04:29:09;7.68;;;5.45;;
77298;SDS011;66361;52.034;20.656;2023-02-23T04:33:13;13.65;;;8.05;;
77298;SDS011;66361;52.034;20.656;2023-02-23T04:37:16;10.75;;;5.90;;
77298;SDS011;66361;52.034;20.656;2023-02-23T04:41:21;11.43;;;7.07;;
77298;SDS011;66361;52.034;20.656;2023-02-23T04:45:24;10.50;;;7.15;;
77298;SDS011;66361;52.034;20.656;2023-02-23T04:49:28;8.13;;;5.85;;
77298;SDS011;66361;52.034;20.656;2023-02-23T04:53:31;14.30;;;8.60;;
77298;SDS011;66361;52.034;20.656;2023-02-23T04:57:35;12.32;;;5.88;;
77298;SDS011;66361;52.034;20.656;2023-02-23T05:01:38;10.20;;;5.45;;
77298;SDS011;66361;52.034;20.656;2023-02-23T05:05:42;13.52;;;6.57;;
77298;SDS011;66361;52.034;20.656;2023-02-23T05:09:45;8.93;;;6.38;;
77298;SDS011;66361;52.034;20.656;2023-02-23T05:13:49;9.23;;;5.85;;
77298;SDS011;66361;52.034;20.656;2023-02-23T05:17:52;11.32;;;6.60;;
77298;SDS011;66361;52.034;20.656;2023-02-23T05:21:56;15.93;;;7.57;;
77298;SDS011;66361;52.034;20.656;2023-02-23T05:26:00;11.05;;;6.25;;
77298;SDS011;66361;52.034;20.656;2023-02-23T05:30:08;13.50;;;7.60;;
77298;SDS011;66361;52.034;20.656;2023-02-23T05:34:12;13.75;;;8.30;;
77298;SDS011;66361;52.034;20.656;2023-02-23T05:38:17;9.73;;;6.18;;
77298;SDS011;66361;52.034;20.656;2023-02-23T05:42:20;11.45;;;7.22;;
77298;SDS011;66361;52.034;20.656;2023-02-23T05:46:25;10.70;;;6.85;;
77298;SDS011;66361;52.034;20.656;2023-02-23T05:50:29;13.48;;;5.78;;
77298;SDS011;66361;52.034;20.656;2023-02-23T05:54:35;13.50;;;7.05;;
77298;SDS011;66361;52.034;20.656;2023-02-23T05:58:38;13.20;;;8.73;;
77298;SDS011;66361;52.034;20.656;2023-02-23T06:02:45;15.00;;;7.35;;
77298;SDS011;66361;52.034;20.656;2023-02-23T06:06:50;16.45;;;9.60;;
77298;SDS011;66361;52.034;20.656;2023-02-23T06:10:53;10.85;;;6.13;;
77298;SDS011;66361;52.034;20.656;2023-02-23T06:14:56;11.63;;;7.97;;
77298;SDS011;66361;52.034;20.656;2023-02-23T06:19:02;8.43;;;5.75;;
77298;SDS011;66361;52.034;20.656;2023-02-23T06:23:05;12.73;;;7.82;;
77298;SDS011;66361;52.034;20.656;2023-02-23T06:27:08;7.88;;;5.82;;
77298;SDS011;66361;52.034;20.656;2023-02-23T06:35:16;11.55;;;7.60;;
77298;SDS011;66361;52.034;20.656;2023-02-23T06:39:19;12.80;;;6.90;;
77298;SDS011;66361;52.034;20.656;2023-02-23T06:43:22;13.27;;;7.60;;
77298;SDS011;66361;52.034;20.656;2023-02-23T06:47:26;9.55;;;6.00;;
77298;SDS011;66361;52.034;20.656;2023-02-23T06:51:30;11.68;;;7.22;;
77298;SDS011;66361;52.034;20.656;2023-02-23T06:55:37;12.15;;;6.18;;
77298;SDS011;66361;52.034;20.656;2023-02-23T06:59:40;11.80;;;6.07;;
77298;SDS011;66361;52.034;20.656;2023-02-23T07:03:44;12.80;;;6.65;;
77298;SDS011;66361;52.034;20.656;2023-02-23T07:07:49;14.13;;;8.45;;
77298;SDS011;66361;52.034;20.656;2023-02-23T07:11:55;5.85;;;4.63;;
77298;SDS011;66361;52.034;20.656;2023-02-23T07:16:04;10.25;;;5.82;;
77298;SDS011;66361;52.034;20.656;2023-02-23T07:20:11;11.90;;;8.52;;
77298;SDS011;66361;52.034;20.656;2023-02-23T07:24:17;10.80;;;7.05;;
77298;SDS011;66361;52.034;20.656;2023-02-23T07:28:22;10.35;;;6.80;;
77298;SDS011;66361;52.034;20.656;2023-02-23T07:32:26;14.55;;;8.13;;
77298;SDS011;66361;52.034;20.656;2023-02-23T07:36:29;10.80;;;7.07;;
77298;SDS011;66361;52.034;20.656;2023-02-23T07:40:34;10.68;;;7.00;;
77298;SDS011;66361;52.034;20.656;2023-02-23T07:44:38;11.35;;;6.72;;
77298;SDS011;66361;52.034;20.656;2023-02-23T07:48:41;9.85;;;7.35;;
77298;SDS011;66361;52.034;20.656;2023-02-23T07:52:46;15.57;;;7.47;;
77298;SDS011;66361;52.034;20.656;2023-02-23T07:56:50;15.88;;;8.48;;
77298;SDS011;66361;52.034;20.656;2023-02-23T08:01:00;9.73;;;7.00;;
77298;SDS011;66361;52.034;20.656;2023-02-23T08:05:04;10.68;;;7.28;;
77298;SDS011;66361;52.034;20.656;2023-02-23T08:09:09;13.60;;;8.43;;
77298;SDS011;66361;52.034;20.656;2023-02-23T08:13:14;8.98;;;6.45;;
77298;SDS011;66361;52.034;20.656;2023-02-23T08:17:21;7.93;;;6.13;;
77298;SDS011;66361;52.034;20.656;2023-02-23T08:21:26;13.07;;;6.22;;
77298;SDS011;66361;52.034;20.656;2023-02-23T08:25:30;11.50;;;7.40;;
77298;SDS011;66361;52.034;20.656;2023-02-23T08:29:35;9.43;;;5.95;;
77298;SDS011;66361;52.034;20.656;2023-02-23T08:33:40;9.80;;;6.75;;
77298;SDS011;66361;52.034;20.656;2023-02-23T08:37:43;10.85;;;7.13;;
77298;SDS011;66361;52.034;20.656;2023-02-23T08:41:47;8.48;;;5.93;;
77298;SDS011;66361;52.034;20.656;2023-02-23T08:45:52;9.55;;;7.00;;
77298;SDS011;66361;52.034;20.656;2023-02-23T08:49:55;11.27;;;7.55;;
77298;SDS011;66361;52.034;20.656;2023-02-23T08:53:58;13.55;;;8.90;;
77298;SDS011;66361;52.034;20.656;2023-02-23T08:58:04;11.10;;;8.27;;
77298;SDS011;66361;52.034;20.656;2023-02-23T09:02:10;10.70;;;6.57;;
77298;SDS011;66361;52.034;20.656;2023-02-23T09:06:17;8.65;;;5.70;;
77298;SDS011;66361;52.034;20.656;2023-02-23T09:10:22;9.80;;;8.13;;
77298;SDS011;66361;52.034;20.656;2023-02-23T09:14:27;9.52;;;6.88;;
77298;SDS011;66361;52.034;20.656;2023-02-23T09:18:34;9.75;;;6.35;;
77298;SDS011;66361;52.034;20.656;2023-02-23T09:22:38;10.30;;;6.53;;
77298;SDS011;66361;52.034;20.656;2023-02-23T09:26:42;10.18;;;6.55;;
77298;SDS011;66361;52.034;20.656;2023-02-23T09:30:46;7.82;;;4.85;;
77298;SDS011;66361;52.034;20.656;2023-02-23T09:38:54;8.45;;;5.70;;
77298;SDS011;66361;52.034;20.656;2023-02-23T09:42:59;9.55;;;5.18;;
77298;SDS011;66361;52.034;20.656;2023-02-23T09:47:11;9.10;;;6.07;;
77298;SDS011;66361;52.034;20.656;2023-02-23T09:51:24;7.43;;;5.65;;
77298;SDS011;66361;52.034;20.656;2023-02-23T09:55:29;6.63;;;4.55;;
77298;SDS011;66361;52.034;20.656;2023-02-23T09:59:34;9.52;;;6.32;;
77298;SDS011;66361;52.034;20.656;2023-02-23T10:03:38;9.20;;;6.22;;
77298;SDS011;66361;52.034;20.656;2023-02-23T10:07:50;8.90;;;5.80;;
77298;SDS011;66361;52.034;20.656;2023-02-23T10:12:00;7.47;;;5.38;;
77298;SDS011;66361;52.034;20.656;2023-02-23T10:16:12;10.15;;;5.78;;
77298;SDS011;66361;52.034;20.656;2023-02-23T10:20:23;8.02;;;5.53;;
77298;SDS011;66361;52.034;20.656;2023-02-23T10:24:36;10.77;;;7.63;;
77298;SDS011;66361;52.034;20.656;2023-02-23T10:28:45;8.32;;;4.78;;
77298;SDS011;66361;52.034;20.656;2023-02-23T10:32:50;10.52;;;6.10;;
77298;SDS011;66361;52.034;20.656;2023-02-23T10:36:58;8.30;;;5.45;;
77298;SDS011;66361;52.034;20.656;2023-02-23T10:41:04;8.68;;;4.82;;
77298;SDS011;66361;52.034;20.656;2023-02-23T10:45:11;10.10;;;6.95;;
77298;SDS011;66361;52.034;20.656;2023-02-23T10:49:23;11.23;;;6.75;;
77298;SDS011;66361;52.034;20.656;2023-02-23T10:53:32;9.00;;;5.63;;
77298;SDS011;66361;52.034;20.656;2023-02-23T10:57:38;8.50;;;5.88;;
77298;SDS011;66361;52.034;20.656;2023-02-23T11:01:42;12.88;;;6.78;;
77298;SDS011;66361;52.034;20.656;2023-02-23T11:06:01;8.50;;;5.40;;
77298;SDS011;66361;52.034;20.656;2023-02-23T11:14:33;11.68;;;6.57;;
77298;SDS011;66361;52.034;20.656;2023-02-23T11:18:38;8.75;;;5.93;;
77298;SDS011;66361;52.034;20.656;2023-02-23T11:22:43;7.22;;;5.38;;
77298;SDS011;66361;52.034;20.656;2023-02-23T11:26:47;11.93;;;6.95;;
77298;SDS011;66361;52.034;20.656;2023-02-23T11:30:54;8.15;;;4.90;;
77298;SDS011;66361;52.034;20.656;2023-02-23T11:35:28;9.73;;;6.10;;
77298;SDS011;66361;52.034;20.656;2023-02-23T11:39:35;6.45;;;4.78;;
77298;SDS011;66361;52.034;20.656;2023-02-23T11:43:39;10.43;;;5.88;;
77298;SDS011;66361;52.034;20.656;2023-02-23T11:47:52;6.50;;;5.22;;
77298;SDS011;66361;52.034;20.656;2023-02-23T11:51:56;12.80;;;6.63;;
77298;SDS011;66361;52.034;20.656;2023-02-23T11:56:00;10.95;;;6.72;;
77298;SDS011;66361;52.034;20.656;2023-02-23T12:00:20;11.98;;;6.13;;
77298;SDS011;66361;52.034;20.656;2023-02-23T12:04:29;8.45;;;6.10;;
77298;SDS011;66361;52.034;20.656;2023-02-23T12:08:38;10.40;;;6.68;;
77298;SDS011;66361;52.034;20.656;2023-02-23T12:12:50;11.35;;;5.95;;
77298;SDS011;66361;52.034;20.656;2023-02-23T12:16:58;10.13;;;6.30;;
77298;SDS011;66361;52.034;20.656;2023-02-23T12:21:17;8.10;;;6.90;;
77298;SDS011;66361;52.034;20.656;2023-02-23T12:25:36;8.52;;;6.25;;
77298;SDS011;66361;52.034;20.656;2023-02-23T12:29:53;9.02;;;6.47;;
77298;SDS011;66361;52.034;20.656;2023-02-23T12:34:09;8.77;;;6.20;;
77298;SDS011;66361;52.034;20.656;2023-02-23T12:38:22;11.88;;;7.68;;
77298;SDS011;66361;52.034;20.656;2023-02-23T12:42:36;9.57;;;6.90;;
77298;SDS011;66361;52.034;20.656;2023-02-23T12:46:47;9.50;;;5.95;;
77298;SDS011;66361;52.034;20.656;2023-02-23T12:50:54;6.82;;;5.03;;
77298;SDS011;66361;52.034;20.656;2023-02-23T12:55:01;8.43;;;6.47;;
77298;SDS011;66361;52.034;20.656;2023-02-23T12:59:10;8.48;;;6.22;;
77298;SDS011;66361;52.034;20.656;2023-02-23T13:03:29;10.70;;;6.50;;
77298;SDS011;66361;52.034;20.656;2023-02-23T13:07:47;8.63;;;5.47;;
77298;SDS011;66361;52.034;20.656;2023-02-23T13:12:17;6.32;;;5.03;;
77298;SDS011;66361;52.034;20.656;2023-02-23T13:16:39;9.77;;;5.50;;
77298;SDS011;66361;52.034;20.656;2023-02-23T13:20:47;12.20;;;7.18;;
77298;SDS011;66361;52.034;20.656;2023-02-23T13:24:59;8.55;;;5.25;;
77298;SDS011;66361;52.034;20.656;2023-02-23T13:29:07;13.27;;;6.28;;
77298;SDS011;66361;52.034;20.656;2023-02-23T13:33:25;9.80;;;6.57;;
77298;SDS011;66361;52.034;20.656;2023-02-23T13:37:47;9.10;;;7.63;;
77298;SDS011;66361;52.034;20.656;2023-02-23T13:41:56;8.07;;;5.68;;
77298;SDS011;66361;52.034;20.656;2023-02-23T13:46:17;7.40;;;5.28;;
77298;SDS011;66361;52.034;20.656;2023-02-23T13:55:59;11.07;;;6.10;;
77298;SDS011;66361;52.034;20.656;2023-02-23T14:00:14;10.80;;;5.80;;
77298;SDS011;66361;52.034;20.656;2023-02-23T14:04:22;6.80;;;5.78;;
77298;SDS011;66361;52.034;20.656;2023-02-23T14:08:31;13.40;;;7.43;;
77298;SDS011;66361;52.034;20.656;2023-02-23T14:12:37;9.27;;;6.00;;
77298;SDS011;66361;52.034;20.656;2023-02-23T14:16:42;11.07;;;9.80;;
77298;SDS011;66361;52.034;20.656;2023-02-23T14:20:51;10.50;;;7.22;;
77298;SDS011;66361;52.034;20.656;2023-02-23T14:29:38;11.85;;;7.13;;
77298;SDS011;66361;52.034;20.656;2023-02-23T14:33:48;11.52;;;6.80;;
77298;SDS011;66361;52.034;20.656;2023-02-23T14:38:00;12.35;;;5.82;;
77298;SDS011;66361;52.034;20.656;2023-02-23T14:42:05;11.50;;;6.55;;
77298;SDS011;66361;52.034;20.656;2023-02-23T14:50:25;9.32;;;5.45;;
77298;SDS011;66361;52.034;20.656;2023-02-23T14:54:33;11.32;;;7.00;;
77298;SDS011;66361;52.034;20.656;2023-02-23T14:58:37;12.35;;;8.00;;
77298;SDS011;66361;52.034;20.656;2023-02-23T15:02:51;12.13;;;7.00;;
77298;SDS011;66361;52.034;20.656;2023-02-23T15:06:58;11.82;;;6.95;;
77298;SDS011;66361;52.034;20.656;2023-02-23T15:11:05;12.98;;;7.70;;
77298;SDS011;66361;52.034;20.656;2023-02-23T15:15:14;13.23;;;7.70;;
77298;SDS011;66361;52.034;20.656;2023-02-23T15:19:20;13.13;;;7.68;;
77298;SDS011;66361;52.034;20.656;2023-02-23T15:23:25;15.55;;;7.93;;
77298;SDS011;66361;52.034;20.656;2023-02-23T15:27:40;9.82;;;5.97;;
77298;SDS011;66361;52.034;20.656;2023-02-23T15:31:46;11.57;;;7.65;;
77298;SDS011;66361;52.034;20.656;2023-02-23T15:35:54;15.52;;;7.63;;
77298;SDS011;66361;52.034;20.656;2023-02-23T15:40:06;10.40;;;6.50;;
77298;SDS011;66361;52.034;20.656;2023-02-23T15:48:23;17.33;;;8.98;;
77298;SDS011;66361;52.034;20.656;2023-02-23T15:52:28;14.77;;;9.07;;
77298;SDS011;66361;52.034;20.656;2023-02-23T15:56:33;13.68;;;9.57;;
77298;SDS011;66361;52.034;20.656;2023-02-23T16:00:38;15.25;;;8.93;;
77298;SDS011;66361;52.034;20.656;2023-02-23T16:04:43;19.98;;;10.52;;
77298;SDS011;66361;52.034;20.656;2023-02-23T16:08:55;16.88;;;9.88;;
77298;SDS011;66361;52.034;20.656;2023-02-23T16:12:59;17.40;;;10.63;;
77298;SDS011;66361;52.034;20.656;2023-02-23T16:17:10;19.00;;;10.85;;
77298;SDS011;66361;52.034;20.656;2023-02-23T16:21:23;15.40;;;9.18;;
77298;SDS011;66361;52.034;20.656;2023-02-23T16:25:27;19.27;;;10.75;;
77298;SDS011;66361;52.034;20.656;2023-02-23T16:29:33;19.15;;;9.60;;
77298;SDS011;66361;52.034;20.656;2023-02-23T16:33:50;16.80;;;10.10;;
77298;SDS011;66361;52.034;20.656;2023-02-23T16:37:57;19.67;;;7.75;;
77298;SDS011;66361;52.034;20.656;2023-02-23T16:42:02;25.20;;;11.57;;
77298;SDS011;66361;52.034;20.656;2023-02-23T16:46:05;18.58;;;10.77;;
77298;SDS011;66361;52.034;20.656;2023-02-23T16:50:13;23.20;;;12.70;;
77298;SDS011;66361;52.034;20.656;2023-02-23T16:54:20;18.23;;;11.77;;
77298;SDS011;66361;52.034;20.656;2023-02-23T16:58:24;24.73;;;13.02;;
77298;SDS011;66361;52.034;20.656;2023-02-23T17:02:30;20.65;;;11.43;;
77298;SDS011;66361;52.034;20.656;2023-02-23T17:06:35;22.17;;;12.50;;
77298;SDS011;66361;52.034;20.656;2023-02-23T17:10:42;23.38;;;13.65;;
77298;SDS011;66361;52.034;20.656;2023-02-23T17:14:48;18.95;;;12.15;;
77298;SDS011;66361;52.034;20.656;2023-02-23T17:18:51;25.50;;;13.32;;
77298;SDS011;66361;52.034;20.656;2023-02-23T17:22:56;25.08;;;12.48;;
77298;SDS011;66361;52.034;20.656;2023-02-23T17:27:01;20.00;;;11.27;;
77298;SDS011;66361;52.034;20.656;2023-02-23T17:31:04;21.92;;;12.13;;
77298;SDS011;66361;52.034;20.656;2023-02-23T17:35:10;20.13;;;12.48;;
77298;SDS011;66361;52.034;20.656;2023-02-23T17:39:17;20.98;;;13.23;;
77298;SDS011;66361;52.034;20.656;2023-02-23T17:43:20;22.10;;;10.32;;
77298;SDS011;66361;52.034;20.656;2023-02-23T17:47:26;23.63;;;14.48;;
77298;SDS011;66361;52.034;20.656;2023-02-23T17:51:31;19.98;;;13.57;;
77298;SDS011;66361;52.034;20.656;2023-02-23T17:55:36;18.88;;;9.98;;
77298;SDS011;66361;52.034;20.656;2023-02-23T17:59:39;18.88;;;9.63;;
77298;SDS011;66361;52.034;20.656;2023-02-23T18:03:42;14.50;;;11.13;;
77298;SDS011;66361;52.034;20.656;2023-02-23T18:07:45;21.98;;;12.38;;
77298;SDS011;66361;52.034;20.656;2023-02-23T18:11:50;21.63;;;12.13;;
77298;SDS011;66361;52.034;20.656;2023-02-23T18:15:54;25.13;;;12.80;;
77298;SDS011;66361;52.034;20.656;2023-02-23T18:20:00;20.55;;;10.80;;
77298;SDS011;66361;52.034;20.656;2023-02-23T18:24:03;19.70;;;12.35;;
77298;SDS011;66361;52.034;20.656;2023-02-23T18:28:08;24.15;;;13.77;;
77298;SDS011;66361;52.034;20.656;2023-02-23T18:32:11;21.45;;;12.88;;
77298;SDS011;66361;52.034;20.656;2023-02-23T18:36:16;13.27;;;8.85;;
77298;SDS011;66361;52.034;20.656;2023-02-23T18:40:20;25.75;;;13.18;;
77298;SDS011;66361;52.034;20.656;2023-02-23T18:44:26;22.35;;;12.80;;
77298;SDS011;66361;52.034;20.656;2023-02-23T18:48:29;25.75;;;12.82;;
77298;SDS011;66361;52.034;20.656;2023-02-23T18:52:32;21.73;;;12.95;;
77298;SDS011;66361;52.034;20.656;2023-02-23T18:56:36;24.88;;;13.88;;
77298;SDS011;66361;52.034;20.656;2023-02-23T19:00:42;22.23;;;11.85;;
77298;SDS011;66361;52.034;20.656;2023-02-23T19:04:46;23.23;;;12.65;;
77298;SDS011;66361;52.034;20.656;2023-02-23T19:08:50;25.33;;;12.60;;
77298;SDS011;66361;52.034;20.656;2023-02-23T19:12:55;23.60;;;13.30;;
77298;SDS011;66361;52.034;20.656;2023-02-23T19:17:02;22.00;;;13.80;;
77298;SDS011;66361;52.034;20.656;2023-02-23T19:21:05;23.75;;;14.50;;
77298;SDS011;66361;52.034;20.656;2023-02-23T19:25:08;22.80;;;13.93;;
77298;SDS011;66361;52.034;20.656;2023-02-23T19:29:15;24.70;;;14.40;;
77298;SDS011;66361;52.034;20.656;2023-02-23T19:33:19;28.52;;;16.23;;
77298;SDS011;66361;52.034;20.656;2023-02-23T19:37:23;31.10;;;15.63;;
77298;SDS011;66361;52.034;20.656;2023-02-23T19:41:27;23.25;;;13.40;;
77298;SDS011;66361;52.034;20.656;2023-02-23T19:45:31;29.35;;;15.30;;
77298;SDS011;66361;52.034;20.656;2023-02-23T19:49:35;25.08;;;14.95;;
77298;SDS011;66361;52.034;20.656;2023-02-23T19:53:39;28.52;;;16.80;;
77298;SDS011;66361;52.034;20.656;2023-02-23T19:57:42;31.45;;;15.63;;
77298;SDS011;66361;52.034;20.656;2023-02-23T20:01:45;25.60;;;14.25;;
77298;SDS011;66361;52.034;20.656;2023-02-23T20:05:53;30.65;;;13.77;;
77298;SDS011;66361;52.034;20.656;2023-02-23T20:09:57;30.58;;;16.05;;
77298;SDS011;66361;52.034;20.656;2023-02-23T20:14:01;23.15;;;13.43;;
77298;SDS011;66361;52.034;20.656;2023-02-23T20:18:05;29.92;;;16.20;;
77298;SDS011;66361;52.034;20.656;2023-02-23T20:22:09;30.30;;;17.63;;
77298;SDS011;66361;52.034;20.656;2023-02-23T20:26:13;27.80;;;16.15;;
77298;SDS011;66361;52.034;20.656;2023-02-23T20:30:19;31.05;;;17.00;;
77298;SDS011;66361;52.034;20.656;2023-02-23T20:38:28;30.42;;;16.95;;
77298;SDS011;66361;52.034;20.656;2023-02-23T20:42:31;37.35;;;18.40;;
77298;SDS011;66361;52.034;20.656;2023-02-23T20:46:34;32.10;;;17.15;;
77298;SDS011;66361;52.034;20.656;2023-02-23T20:50:37;35.30;;;17.00;;
77298;SDS011;66361;52.034;20.656;2023-02-23T20:54:43;29.75;;;16.85;;
77298;SDS011;66361;52.034;20.656;2023-02-23T20:58:46;35.47;;;16.70;;
77298;SDS011;66361;52.034;20.656;2023-02-23T21:02:49;32.40;;;16.45;;
77298;SDS011;66361;52.034;20.656;2023-02-23T21:06:56;31.38;;;17.33;;
77298;SDS011;66361;52.034;20.656;2023-02-23T21:15:07;36.88;;;19.83;;
77298;SDS011;66361;52.034;20.656;2023-02-23T21:19:10;32.67;;;18.48;;
77298;SDS011;66361;52.034;20.656;2023-02-23T21:23:14;34.35;;;18.92;;
77298;SDS011;66361;52.034;20.656;2023-02-23T21:27:19;36.13;;;19.27;;
77298;SDS011;66361;52.034;20.656;2023-02-23T21:31:24;35.50;;;18.55;;
77298;SDS011;66361;52.034;20.656;2023-02-23T21:39:31;29.17;;;16.90;;
77298;SDS011;66361;52.034;20.656;2023-02-23T21:43:35;29.95;;;15.95;;
77298;SDS011;66361;52.034;20.656;2023-02-23T21:47:40;30.02;;;16.73;;
77298;SDS011;66361;52.034;20.656;2023-02-23T21:51:47;35.22;;;18.17;;
77298;SDS011;66361;52.034;20.656;2023-02-23T21:55:53;32.58;;;14.45;;
77298;SDS011;66361;52.034;20.656;2023-02-23T21:59:57;28.00;;;15.20;;
77298;SDS011;66361;52.034;20.656;2023-02-23T22:04:03;30.55;;;16.73;;
77298;SDS011;66361;52.034;20.656;2023-02-23T22:08:07;30.27;;;18.90;;
77298;SDS011;66361;52.034;20.656;2023-02-23T22:12:15;31.98;;;17.55;;
77298;SDS011;66361;52.034;20.656;2023-02-23T22:16:20;32.50;;;17.13;;
77298;SDS011;66361;52.034;20.656;2023-02-23T22:20:23;33.88;;;17.52;;
77298;SDS011;66361;52.034;20.656;2023-02-23T22:24:27;26.05;;;12.50;;
77298;SDS011;66361;52.034;20.656;2023-02-23T22:28:31;34.90;;;17.83;;
77298;SDS011;66361;52.034;20.656;2023-02-23T22:32:39;38.47;;;17.05;;
77298;SDS011;66361;52.034;20.656;2023-02-23T22:36:43;17.88;;;11.43;;
77298;SDS011;66361;52.034;20.656;2023-02-23T22:40:46;33.28;;;18.67;;
77298;SDS011;66361;52.034;20.656;2023-02-23T22:44:49;31.83;;;18.23;;
77298;SDS011;66361;52.034;20.656;2023-02-23T22:48:54;31.10;;;17.75;;
77298;SDS011;66361;52.034;20.656;2023-02-23T22:52:58;37.65;;;19.17;;
77298;SDS011;66361;52.034;20.656;2023-02-23T22:57:01;36.95;;;17.52;;
77298;SDS011;66361;52.034;20.656;2023-02-23T23:05:11;33.42;;;17.38;;
77298;SDS011;66361;52.034;20.656;2023-02-23T23:09:15;33.35;;;16.77;;
77298;SDS011;66361;52.034;20.656;2023-02-23T23:13:21;34.20;;;16.73;;
77298;SDS011;66361;52.034;20.656;2023-02-23T23:17:24;38.00;;;19.08;;
77298;SDS011;66361;52.034;20.656;2023-02-23T23:21:33;35.45;;;18.17;;
77298;SDS011;66361;52.034;20.656;2023-02-23T23:25:37;31.15;;;18.85;;
77298;SDS011;66361;52.034;20.656;2023-02-23T23:29:42;34.80;;;17.55;;
77298;SDS011;66361;52.034;20.656;2023-02-23T23:33:47;40.13;;;19.20;;
77298;SDS011;66361;52.034;20.656;2023-02-23T23:37:53;37.08;;;17.52;;
77298;SDS011;66361;52.034;20.656;2023-02-23T23:41:57;34.13;;;18.45;;
77298;SDS011;66361;52.034;20.656;2023-02-23T23:46:07;30.85;;;18.55;;
77298;SDS011;66361;52.034;20.656;2023-02-23T23:50:11;29.42;;;16.88;;
77298;SDS011;66361;52.034;20.656;2023-02-23T23:54:18;35.17;;;18.77;;
77298;SDS011;66361;52.034;20.656;2023-02-23T23:58:23;36.30;;;17.20;;
